Time;durP1;ratioP1;P1;durP2;ratioP2;P2;SDS_P1;SDS_P2;PMS_P1;PMS_P2;Temp;Humidity;BMP_temperature;BMP_pressure;BME280_temperature;BME280_humidity;BME280_pressure;Samples;Min_cycle;Max_cycle;Signal;HPM_P1;HPM_P2
2021/06/14 00:00:56;;;;;;;8.90;6.93;;;17.10;64.30;;;;;;5051212;28;20044;-74
2021/06/14 00:03:22;;;;;;;8.93;6.10;;;17.10;64.20;;;;;;5070276;28;20091;-72
2021/06/14 00:05:48;;;;;;;10.77;6.78;;;17.00;64.30;;;;;;5070380;28;20037;-74
2021/06/14 00:08:17;;;;;;;9.93;6.50;;;16.90;64.60;;;;;;5067641;28;20043;-71
2021/06/14 00:10:45;;;;;;;11.48;6.10;;;16.90;64.80;;;;;;5062160;28;20017;-73
2021/06/14 00:13:11;;;;;;;11.52;5.82;;;16.90;64.70;;;;;;5065770;28;20036;-73
2021/06/14 00:15:38;;;;;;;7.63;5.47;;;16.90;64.60;;;;;;5068071;28;20068;-73
2021/06/14 00:18:05;;;;;;;9.43;5.43;;;16.80;64.60;;;;;;5066488;28;20078;-74
2021/06/14 00:20:32;;;;;;;9.85;5.70;;;16.70;64.70;;;;;;5060341;28;20063;-72
2021/06/14 00:22:58;;;;;;;11.55;6.15;;;16.70;64.80;;;;;;5072742;28;20086;-71
2021/06/14 00:25:26;;;;;;;10.50;6.05;;;16.70;64.80;;;;;;5068065;28;20044;-72
2021/06/14 00:27:52;;;;;;;8.98;6.07;;;16.70;64.90;;;;;;5070572;28;20036;-73
2021/06/14 00:30:29;;;;;;;8.90;4.80;;;16.70;64.90;;;;;;5069937;28;20516;-73
2021/06/14 00:32:55;;;;;;;8.82;4.95;;;16.70;64.90;;;;;;5070866;28;20036;-73
2021/06/14 00:35:21;;;;;;;7.25;5.60;;;16.60;65.00;;;;;;5069355;28;20021;-72
2021/06/14 00:37:46;;;;;;;9.50;5.25;;;16.50;65.20;;;;;;5054537;28;20461;-72
2021/06/14 00:40:13;;;;;;;6.97;4.82;;;16.40;65.30;;;;;;5066621;28;20370;-73
2021/06/14 00:42:39;;;;;;;8.85;4.90;;;16.30;65.60;;;;;;5051717;28;20025;-73
2021/06/14 00:45:08;;;;;;;7.78;4.35;;;16.20;66.10;;;;;;5069906;28;20024;-72
2021/06/14 00:47:34;;;;;;;8.18;5.05;;;16.10;66.30;;;;;;5066905;28;20029;-72
2021/06/14 00:50:00;;;;;;;8.68;5.13;;;16.00;66.40;;;;;;5071194;28;20039;-72
2021/06/14 00:52:26;;;;;;;7.50;4.85;;;16.00;66.60;;;;;;5069162;28;20880;-73
2021/06/14 00:54:52;;;;;;;7.13;5.20;;;16.00;66.50;;;;;;5069696;28;20056;-73
2021/06/14 00:57:17;;;;;;;8.20;4.95;;;16.00;66.50;;;;;;5070035;28;20040;-73
2021/06/14 00:59:44;;;;;;;8.43;4.97;;;16.00;66.40;;;;;;5067250;28;20089;-73
2021/06/14 01:02:10;;;;;;;9.00;5.15;;;16.00;66.50;;;;;;5078922;28;20033;-75
2021/06/14 01:04:36;;;;;;;8.88;5.25;;;16.10;66.60;;;;;;5085167;28;20443;-73
2021/06/14 01:07:02;;;;;;;6.47;4.60;;;16.10;66.40;;;;;;5049053;28;20496;-75
2021/06/14 01:09:28;;;;;;;8.05;4.32;;;16.10;66.20;;;;;;5068855;28;20502;-71
2021/06/14 01:12:08;;;;;;;11.13;4.82;;;15.90;66.20;;;;;;5056512;28;20111;-72
2021/06/14 01:14:48;;;;;;;10.75;5.43;;;15.80;66.50;;;;;;5078299;28;20025;-72
2021/06/14 01:17:36;;;;;;;10.60;5.43;;;15.70;66.90;;;;;;5066433;28;20028;-75
2021/06/14 01:20:17;;;;;;;8.55;5.47;;;15.70;67.00;;;;;;5066487;28;20066;-76
2021/06/14 01:23:13;;;;;;;7.13;5.10;;;15.80;67.10;;;;;;5051846;28;20031;-73
2021/06/14 01:25:41;;;;;;;9.88;5.28;;;16.00;67.00;;;;;;5068564;28;20032;-73
2021/06/14 01:28:09;;;;;;;13.73;5.47;;;16.00;66.80;;;;;;5071293;28;20032;-72
2021/06/14 01:30:37;;;;;;;8.05;4.95;;;15.90;66.80;;;;;;5051899;28;20110;-74
2021/06/14 01:33:06;;;;;;;7.88;4.72;;;15.90;67.10;;;;;;5051121;28;20469;-73
2021/06/14 01:35:36;;;;;;;9.43;4.93;;;15.80;67.10;;;;;;5066384;28;20778;-73
2021/06/14 01:38:04;;;;;;;8.25;5.30;;;15.80;67.20;;;;;;5069604;28;20040;-72
2021/06/14 01:40:31;;;;;;;11.02;5.15;;;15.70;67.60;;;;;;5070048;28;20025;-72
2021/06/14 01:43:01;;;;;;;6.43;4.75;;;15.60;67.70;;;;;;5069513;28;20028;-72
2021/06/14 01:45:30;;;;;;;9.35;4.78;;;15.60;67.80;;;;;;5072349;28;20024;-71
2021/06/14 01:47:58;;;;;;;8.45;5.30;;;15.60;67.90;;;;;;5064867;28;20033;-72
2021/06/14 01:50:29;;;;;;;8.23;5.10;;;15.70;67.90;;;;;;5064808;28;20172;-73
2021/06/14 01:52:56;;;;;;;8.20;5.35;;;15.80;67.90;;;;;;5056301;28;20025;-73
2021/06/14 01:55:22;;;;;;;8.85;5.28;;;15.70;67.70;;;;;;5071312;28;20055;-73
2021/06/14 01:57:48;;;;;;;8.82;5.30;;;15.60;67.80;;;;;;5074365;28;20033;-73
2021/06/14 02:00:15;;;;;;;7.28;4.90;;;15.60;68.00;;;;;;5058406;28;20056;-73
2021/06/14 02:02:43;;;;;;;9.18;5.40;;;15.70;67.90;;;;;;5079364;28;20056;-72
2021/06/14 02:05:10;;;;;;;6.28;4.93;;;15.70;67.80;;;;;;5073336;28;20025;-72
2021/06/14 02:07:36;;;;;;;8.63;5.10;;;15.50;67.90;;;;;;5070728;28;20087;-72
2021/06/14 02:10:04;;;;;;;8.77;5.78;;;15.40;68.30;;;;;;5073963;28;20032;-73
2021/06/14 02:12:30;;;;;;;7.30;4.97;;;15.40;68.50;;;;;;5071500;28;20457;-73
2021/06/14 02:14:56;;;;;;;8.95;5.70;;;15.40;68.70;;;;;;5072142;28;20043;-73
2021/06/14 02:17:25;;;;;;;9.18;5.28;;;15.30;68.90;;;;;;5072678;28;20063;-75
2021/06/14 02:19:51;;;;;;;7.70;5.45;;;15.30;68.90;;;;;;5073271;28;20058;-72
2021/06/14 02:22:18;;;;;;;6.85;4.78;;;15.40;68.80;;;;;;5064532;28;20033;-72
2021/06/14 02:24:44;;;;;;;9.88;5.20;;;15.50;68.80;;;;;;5053147;28;20029;-73
2021/06/14 02:27:12;;;;;;;9.75;5.13;;;15.50;68.60;;;;;;5054160;28;20432;-71
2021/06/14 02:29:38;;;;;;;9.70;5.43;;;15.60;68.60;;;;;;5061874;28;20093;-70
2021/06/14 02:32:04;;;;;;;8.05;5.72;;;15.60;68.50;;;;;;5074469;28;20101;-74
2021/06/14 02:34:31;;;;;;;8.80;5.78;;;15.50;68.60;;;;;;5050537;28;20084;-72
2021/06/14 02:36:57;;;;;;;11.77;5.90;;;15.30;68.70;;;;;;5063866;28;20373;-72
2021/06/14 02:39:29;;;;;;;9.40;5.80;;;15.10;69.20;;;;;;5072729;28;20101;-76
2021/06/14 02:41:55;;;;;;;10.10;5.28;;;15.10;69.60;;;;;;5070793;28;20103;-72
2021/06/14 02:44:25;;;;;;;9.23;5.45;;;15.00;69.80;;;;;;5074372;28;20140;-72
2021/06/14 02:46:54;;;;;;;9.38;5.88;;;15.10;69.90;;;;;;5073154;28;20025;-72
2021/06/14 02:49:20;;;;;;;10.30;5.80;;;15.10;69.70;;;;;;5072844;28;20107;-73
2021/06/14 02:51:47;;;;;;;9.40;5.60;;;14.90;70.10;;;;;;5071045;28;20051;-73
2021/06/14 02:54:26;;;;;;;10.55;5.88;;;14.90;70.30;;;;;;5070605;28;20052;-73
2021/06/14 02:56:56;;;;;;;11.25;5.72;;;14.80;70.60;;;;;;5072678;28;20050;-73
2021/06/14 02:59:25;;;;;;;9.73;5.70;;;14.60;70.90;;;;;;5069407;28;20033;-72
2021/06/14 03:01:53;;;;;;;11.38;5.85;;;14.70;71.20;;;;;;5069617;28;20492;-72
2021/06/14 03:04:19;;;;;;;9.45;5.63;;;14.80;71.00;;;;;;5070296;28;20503;-72
2021/06/14 03:06:48;;;;;;;9.18;5.47;;;14.80;70.70;;;;;;5064373;28;20029;-72
2021/06/14 03:09:15;;;;;;;8.30;5.93;;;14.80;70.80;;;;;;5058671;28;20049;-72
2021/06/14 03:11:42;;;;;;;8.88;5.43;;;14.80;70.80;;;;;;5066148;28;20091;-72
2021/06/14 03:14:11;;;;;;;9.13;5.80;;;14.80;70.70;;;;;;5070630;28;20033;-72
2021/06/14 03:16:37;;;;;;;9.20;6.45;;;14.60;70.80;;;;;;5052409;28;20032;-73
2021/06/14 03:19:05;;;;;;;8.15;6.47;;;14.50;71.30;;;;;;5063671;28;20389;-73
2021/06/14 03:21:33;;;;;;;10.55;6.00;;;14.50;71.70;;;;;;5068354;28;20054;-76
2021/06/14 03:23:59;;;;;;;14.20;7.18;;;14.40;71.70;;;;;;5051648;28;20473;-73
2021/06/14 03:26:30;;;;;;;10.18;5.63;;;14.20;72.00;;;;;;5052692;28;20068;-73
2021/06/14 03:28:56;;;;;;;10.10;6.65;;;14.10;72.40;;;;;;5056932;28;20032;-73
2021/06/14 03:31:23;;;;;;;9.30;6.05;;;14.00;72.60;;;;;;5071666;28;20044;-71
2021/06/14 03:33:50;;;;;;;9.88;5.60;;;14.20;72.90;;;;;;5065805;28;20024;-72
2021/06/14 03:36:18;;;;;;;12.60;5.88;;;14.30;72.60;;;;;;5058112;28;20485;-73
2021/06/14 03:38:48;;;;;;;11.15;6.15;;;14.50;72.30;;;;;;5069620;28;20032;-73
2021/06/14 03:41:15;;;;;;;9.63;6.40;;;14.60;71.70;;;;;;5070634;28;20154;-73
2021/06/14 03:43:41;;;;;;;11.40;6.28;;;14.60;71.90;;;;;;5069962;28;20111;-73
2021/06/14 03:46:07;;;;;;;11.02;5.80;;;14.60;71.80;;;;;;5072383;28;20111;-73
2021/06/14 03:48:32;;;;;;;9.38;5.80;;;14.80;71.50;;;;;;5069575;28;20157;-76
2021/06/14 03:50:58;;;;;;;9.60;5.82;;;14.80;71.30;;;;;;5052385;28;20487;-73
2021/06/14 03:53:30;;;;;;;9.25;5.57;;;14.80;71.10;;;;;;5051833;28;20017;-73
2021/06/14 03:56:17;;;;;;;9.00;6.13;;;15.00;70.80;;;;;;5051565;28;20555;-73
2021/06/14 03:58:42;;;;;;;10.82;5.63;;;15.60;69.80;;;;;;5065600;28;20052;-73
2021/06/14 04:01:08;;;;;;;13.93;5.28;;;16.30;67.70;;;;;;5060482;28;20428;-73
2021/06/14 04:03:34;;;;;;;11.27;5.10;;;16.70;66.40;;;;;;5051719;28;20098;-74
2021/06/14 04:06:01;;;;;;;9.02;5.13;;;17.00;65.40;;;;;;5057037;28;20041;-72
2021/06/14 04:08:27;;;;;;;7.85;4.97;;;16.90;65.20;;;;;;5068057;28;20040;-72
2021/06/14 04:10:53;;;;;;;8.93;5.22;;;16.90;64.90;;;;;;5069064;28;20043;-73
2021/06/14 04:13:19;;;;;;;9.27;5.18;;;16.90;65.00;;;;;;5057622;28;20083;-73
2021/06/14 04:15:45;;;;;;;10.57;5.28;;;17.00;64.90;;;;;;5066800;28;20032;-71
2021/06/14 04:18:11;;;;;;;10.18;5.63;;;17.00;64.80;;;;;;5051694;28;20432;-73
2021/06/14 04:20:37;;;;;;;11.50;5.57;;;17.50;63.90;;;;;;5065723;28;20052;-76
2021/06/14 04:23:04;;;;;;;9.93;5.30;;;18.80;61.70;;;;;;5068804;28;20036;-72
2021/06/14 04:25:29;;;;;;;9.20;5.22;;;20.10;58.50;;;;;;5053667;28;20382;-72
2021/06/14 04:27:55;;;;;;;8.65;5.80;;;21.00;55.50;;;;;;5066572;28;20044;-72
2021/06/14 04:30:21;;;;;;;7.40;5.13;;;21.70;53.10;;;;;;5049720;28;20033;-73
2021/06/14 04:32:47;;;;;;;9.82;5.45;;;22.30;52.00;;;;;;5069397;28;20131;-72
2021/06/14 04:35:14;;;;;;;9.88;5.75;;;22.80;50.60;;;;;;5065455;28;20074;-72
2021/06/14 04:37:40;;;;;;;9.20;5.90;;;23.30;49.20;;;;;;5070675;28;20060;-75
2021/06/14 04:40:07;;;;;;;13.68;5.90;;;23.70;47.80;;;;;;5070271;28;20083;-72
2021/06/14 04:42:33;;;;;;;10.40;5.55;;;24.10;46.40;;;;;;5068785;28;20095;-72
2021/06/14 04:44:59;;;;;;;10.52;5.68;;;24.60;45.40;;;;;;5070832;28;20427;-71
2021/06/14 04:47:24;;;;;;;11.25;5.47;;;25.10;44.60;;;;;;5067022;28;20033;-72
2021/06/14 04:49:50;;;;;;;10.30;5.18;;;25.70;43.30;;;;;;5065077;28;20117;-71
2021/06/14 04:52:16;;;;;;;12.88;5.13;;;26.20;41.80;;;;;;5051807;28;20033;-72
2021/06/14 04:54:42;;;;;;;11.95;5.45;;;26.50;41.00;;;;;;5053627;28;20190;-74
2021/06/14 04:57:08;;;;;;;9.30;5.10;;;26.60;40.50;;;;;;5071392;28;20040;-72
2021/06/14 04:59:35;;;;;;;9.07;4.55;;;26.60;40.50;;;;;;5068944;28;20020;-71
2021/06/14 05:02:00;;;;;;;9.27;4.47;;;27.00;40.10;;;;;;5069386;28;20154;-71
2021/06/14 05:04:26;;;;;;;11.02;4.82;;;27.40;38.90;;;;;;5050367;28;20132;-71
2021/06/14 05:06:52;;;;;;;8.02;4.45;;;27.70;38.60;;;;;;5058471;28;20040;-72
2021/06/14 05:09:18;;;;;;;8.85;5.18;;;27.90;37.90;;;;;;5068900;28;20469;-72
2021/06/14 05:11:43;;;;;;;9.65;4.60;;;27.90;38.00;;;;;;5070683;28;20358;-76
2021/06/14 05:14:09;;;;;;;10.68;4.70;;;28.10;37.70;;;;;;5069089;28;20055;-71
2021/06/14 05:16:35;;;;;;;9.88;5.28;;;28.30;37.30;;;;;;5071434;28;20154;-71
2021/06/14 05:19:00;;;;;;;10.23;5.38;;;28.30;37.20;;;;;;5058174;28;20052;-71
2021/06/14 05:21:26;;;;;;;10.20;4.68;;;28.10;37.00;;;;;;5073060;28;20029;-72
2021/06/14 05:23:52;;;;;;;11.90;4.63;;;28.10;37.40;;;;;;5052317;28;20036;-71
2021/06/14 05:26:18;;;;;;;9.63;5.00;;;28.60;36.90;;;;;;5071974;28;20092;-72
2021/06/14 05:28:44;;;;;;;9.57;4.85;;;28.70;37.00;;;;;;5072627;28;20044;-71
2021/06/14 05:31:10;;;;;;;10.48;5.30;;;28.80;36.20;;;;;;5072986;28;20028;-71
2021/06/14 05:33:37;;;;;;;11.82;4.93;;;28.90;36.30;;;;;;5055134;28;20422;-72
2021/06/14 05:36:03;;;;;;;9.77;5.68;;;29.10;36.00;;;;;;5073602;28;20152;-71
2021/06/14 05:38:29;;;;;;;8.68;4.72;;;29.40;35.40;;;;;;5074003;28;20033;-71
2021/06/14 05:40:55;;;;;;;12.52;5.50;;;29.80;35.30;;;;;;5072511;28;20020;-73
2021/06/14 05:43:21;;;;;;;11.30;4.93;;;29.90;34.80;;;;;;5068999;28;20115;-72
2021/06/14 05:45:46;;;;;;;8.85;4.70;;;29.90;34.90;;;;;;5073055;28;20040;-72
2021/06/14 05:48:12;;;;;;;9.85;4.75;;;29.70;35.10;;;;;;5072840;28;21033;-72
2021/06/14 05:50:38;;;;;;;9.73;4.22;;;29.50;35.60;;;;;;5057160;28;20029;-72
2021/06/14 05:53:03;;;;;;;10.27;4.85;;;29.40;35.30;;;;;;5072977;28;20029;-72
2021/06/14 05:55:30;;;;;;;12.75;5.60;;;29.20;36.20;;;;;;5053468;28;20059;-72
2021/06/14 05:57:56;;;;;;;10.68;5.00;;;29.40;35.50;;;;;;5066250;28;20031;-72
2021/06/14 06:00:22;;;;;;;11.45;5.10;;;29.40;35.20;;;;;;5057137;28;20090;-72
2021/06/14 06:02:48;;;;;;;11.82;5.65;;;29.70;35.30;;;;;;5068317;28;20035;-74
2021/06/14 06:05:14;;;;;;;13.77;5.00;;;30.00;35.20;;;;;;5066719;28;20032;-71
2021/06/14 06:07:39;;;;;;;9.10;4.78;;;30.20;34.90;;;;;;5067841;28;20492;-71
2021/06/14 06:10:07;;;;;;;11.82;5.68;;;30.10;35.80;;;;;;5079626;28;20392;-73
2021/06/14 06:12:32;;;;;;;12.20;5.25;;;30.40;34.50;;;;;;5081360;28;20101;-71
2021/06/14 06:14:58;;;;;;;10.75;5.10;;;30.20;34.40;;;;;;5070049;28;20436;-71
2021/06/14 06:17:24;;;;;;;11.98;6.10;;;30.30;35.60;;;;;;5074277;28;20089;-72
2021/06/14 06:19:50;;;;;;;14.90;5.50;;;30.60;34.70;;;;;;5061201;28;20393;-72
2021/06/14 06:22:15;;;;;;;8.35;4.78;;;30.90;34.80;;;;;;5068260;28;20103;-72
2021/06/14 06:24:41;;;;;;;13.60;5.03;;;31.20;34.10;;;;;;5072413;28;20377;-72
2021/06/14 06:27:07;;;;;;;8.10;5.00;;;31.30;33.90;;;;;;5071808;28;20449;-75
2021/06/14 06:29:33;;;;;;;14.43;5.40;;;31.30;34.10;;;;;;5049557;28;20037;-72
2021/06/14 06:31:58;;;;;;;14.57;5.40;;;31.60;33.30;;;;;;5052420;28;20112;-75
2021/06/14 06:34:24;;;;;;;11.48;5.18;;;31.60;33.10;;;;;;5052327;28;20477;-72
2021/06/14 06:36:50;;;;;;;9.98;5.03;;;31.50;33.30;;;;;;5041447;28;20388;-72
2021/06/14 06:39:16;;;;;;;9.95;5.03;;;31.30;33.40;;;;;;5077006;28;20867;-72
2021/06/14 06:41:41;;;;;;;10.82;5.07;;;31.10;33.40;;;;;;5071523;28;20032;-71
2021/06/14 06:44:09;;;;;;;12.45;4.63;;;31.10;34.90;;;;;;5071198;28;20039;-72
2021/06/14 06:46:35;;;;;;;9.45;4.60;;;31.80;34.30;;;;;;5065443;28;20047;-72
2021/06/14 06:49:01;;;;;;;12.23;5.25;;;32.00;33.00;;;;;;5052225;28;20045;-75
2021/06/14 06:51:27;;;;;;;12.88;5.53;;;31.60;33.10;;;;;;5061457;28;20033;-72
2021/06/14 06:54:10;;;;;;;13.27;4.72;;;31.30;33.30;;;;;;5061598;28;20040;-72
2021/06/14 06:56:38;;;;;;;10.90;5.00;;;31.10;34.30;;;;;;5059931;28;20115;-72
2021/06/14 06:59:04;;;;;;;12.13;5.40;;;31.20;33.80;;;;;;5061793;28;20074;-76
2021/06/14 07:01:29;;;;;;;11.07;5.20;;;31.00;33.70;;;;;;5055252;28;20032;-73
2021/06/14 07:03:55;;;;;;;11.65;5.32;;;31.00;34.90;;;;;;5058647;28;20040;-72
2021/06/14 07:06:21;;;;;;;12.80;5.80;;;31.20;34.10;;;;;;5061276;28;20037;-70
2021/06/14 07:08:46;;;;;;;13.38;5.68;;;31.20;34.30;;;;;;5074055;28;20045;-72
2021/06/14 07:11:12;;;;;;;11.43;5.72;;;31.50;34.90;;;;;;5056950;28;20031;-72
2021/06/14 07:13:37;;;;;;;9.45;5.35;;;31.50;34.40;;;;;;5066040;28;21783;-71
2021/06/14 07:16:03;;;;;;;11.68;6.28;;;31.40;33.90;;;;;;5043232;28;20508;-76
2021/06/14 07:18:29;;;;;;;9.75;5.40;;;31.10;34.90;;;;;;5069866;28;20551;-72
2021/06/14 07:20:58;;;;;;;9.93;4.63;;;31.00;34.10;;;;;;5057849;28;20583;-72
2021/06/14 07:23:24;;;;;;;9.88;4.90;;;30.80;34.80;;;;;;5056419;28;20472;-73
2021/06/14 07:25:50;;;;;;;11.00;4.32;;;31.30;35.00;;;;;;5059102;28;20032;-71
2021/06/14 07:28:16;;;;;;;10.20;4.78;;;31.50;33.00;;;;;;5056631;28;20403;-72
2021/06/14 07:30:42;;;;;;;5.03;3.72;;;31.40;33.10;;;;;;5061796;28;20475;-70
2021/06/14 07:33:08;;;;;;;9.10;4.40;;;31.70;34.30;;;;;;5079489;28;20029;-75
2021/06/14 07:35:38;;;;;;;10.57;4.30;;;32.00;33.30;;;;;;5068203;28;20024;-71
2021/06/14 07:38:04;;;;;;;7.72;4.20;;;32.40;33.90;;;;;;5058841;28;20440;-72
2021/06/14 07:40:31;;;;;;;8.45;3.97;;;33.00;32.60;;;;;;5060654;28;20369;-72
2021/06/14 07:42:57;;;;;;;9.10;4.30;;;33.20;31.40;;;;;;5076725;28;20036;-72
2021/06/14 07:45:25;;;;;;;11.18;6.07;;;33.10;32.50;;;;;;5054947;28;20036;-72
2021/06/14 07:47:52;;;;;;;8.90;4.38;;;33.40;31.80;;;;;;5071877;28;20028;-72
2021/06/14 07:50:18;;;;;;;10.30;4.45;;;32.80;31.30;;;;;;5051853;28;20036;-72
2021/06/14 07:52:45;;;;;;;9.43;4.18;;;32.50;32.00;;;;;;5072198;28;20056;-71
2021/06/14 07:55:14;;;;;;;10.15;4.28;;;32.40;32.60;;;;;;5068482;28;20053;-75
2021/06/14 07:57:40;;;;;;;7.57;4.75;;;32.30;32.20;;;;;;5057027;28;20039;-72
2021/06/14 08:00:09;;;;;;;8.95;4.35;;;32.60;33.00;;;;;;5070269;28;20016;-73
2021/06/14 08:02:35;;;;;;;9.20;4.70;;;33.20;32.60;;;;;;5064692;28;20020;-71
2021/06/14 08:05:03;;;;;;;11.77;5.30;;;33.50;32.10;;;;;;5056029;28;20468;-74
2021/06/14 08:07:29;;;;;;;10.32;4.75;;;33.30;30.90;;;;;;5071504;28;20040;-72
2021/06/14 08:10:00;;;;;;;8.98;4.72;;;32.50;31.50;;;;;;5063627;28;20028;-71
2021/06/14 08:12:26;;;;;;;9.95;4.68;;;32.20;32.70;;;;;;5063668;28;20056;-72
2021/06/14 08:14:51;;;;;;;6.75;4.18;;;32.20;33.10;;;;;;5056872;28;21609;-72
2021/06/14 08:17:18;;;;;;;6.25;3.47;;;32.40;33.30;;;;;;5061807;28;20044;-72
2021/06/14 08:19:53;;;;;;;9.60;3.83;;;32.80;32.90;;;;;;5070165;28;20029;-71
2021/06/14 08:25:07;;;;;;;15.90;8.80;;;33.70;32.30;;;;;;5070349;28;20115;-74
2021/06/14 08:27:45;;;;;;;6.88;3.40;;;34.00;31.80;;;;;;5057801;28;20040;-73
2021/06/14 08:30:15;;;;;;;7.25;3.50;;;34.40;31.60;;;;;;5071003;28;20021;-71
2021/06/14 08:32:41;;;;;;;3.80;2.53;;;34.20;29.50;;;;;;5070345;28;20021;-71
2021/06/14 08:35:13;;;;;;;6.80;2.60;;;34.00;29.80;;;;;;5048292;28;20028;-72
2021/06/14 08:37:38;;;;;;;4.75;1.90;;;34.20;30.00;;;;;;5060026;28;20063;-72
2021/06/14 08:40:05;;;;;;;4.78;2.50;;;34.60;30.00;;;;;;5074895;28;20086;-72
2021/06/14 08:42:31;;;;;;;4.65;2.50;;;34.90;29.60;;;;;;5068580;28;20067;-71
2021/06/14 08:44:57;;;;;;;4.22;2.20;;;35.00;30.00;;;;;;5069220;28;20056;-71
2021/06/14 08:47:24;;;;;;;5.82;1.80;;;35.30;29.40;;;;;;5070651;28;20033;-72
2021/06/14 08:49:50;;;;;;;5.88;2.33;;;35.60;29.20;;;;;;5055966;28;20032;-72
2021/06/14 08:52:17;;;;;;;6.03;2.33;;;35.90;29.10;;;;;;5069385;28;20021;-75
2021/06/14 08:54:43;;;;;;;5.03;2.10;;;35.90;28.70;;;;;;5070361;28;20052;-72
2021/06/14 08:57:13;;;;;;;4.15;2.00;;;36.10;29.20;;;;;;5075940;28;20032;-71
2021/06/14 08:59:40;;;;;;;4.47;1.80;;;36.40;29.20;;;;;;5068449;28;20621;-72
2021/06/14 09:02:06;;;;;;;4.57;2.38;;;36.50;29.10;;;;;;5070395;28;20036;-71
2021/06/14 09:04:34;;;;;;;5.03;2.10;;;36.50;28.90;;;;;;5063553;28;20487;-71
2021/06/14 09:07:01;;;;;;;4.45;2.13;;;36.40;28.90;;;;;;5049964;28;20037;-70
2021/06/14 09:09:31;;;;;;;5.65;1.80;;;36.10;29.10;;;;;;5050158;28;20037;-71
2021/06/14 09:11:59;;;;;;;5.22;1.60;;;36.20;29.10;;;;;;5061224;28;20024;-71
2021/06/14 09:14:28;;;;;;;5.63;1.95;;;36.30;28.50;;;;;;5068247;28;20025;-72
2021/06/14 09:17:04;;;;;;;3.70;1.77;;;36.00;28.00;;;;;;5063914;28;20040;-72
2021/06/14 09:19:36;;;;;;;4.28;1.60;;;35.60;29.20;;;;;;5058480;28;20071;-71
2021/06/14 09:22:12;;;;;;;6.15;2.10;;;35.80;29.20;;;;;;5054265;28;20082;-71
2021/06/14 09:24:38;;;;;;;5.03;2.03;;;35.90;29.20;;;;;;5064945;28;20106;-71
2021/06/14 09:27:04;;;;;;;7.38;1.90;;;36.00;29.30;;;;;;5066690;28;20061;-72
2021/06/14 09:29:30;;;;;;;3.33;1.60;;;35.30;28.70;;;;;;5058573;28;20036;-73
2021/06/14 09:32:03;;;;;;;5.72;2.00;;;34.50;30.00;;;;;;5058088;28;20028;-71
2021/06/14 09:34:37;;;;;;;4.85;1.50;;;34.50;30.00;;;;;;5077899;28;20481;-72
2021/06/14 09:37:05;;;;;;;4.10;1.30;;;34.40;28.80;;;;;;5068842;28;20032;-73
2021/06/14 09:39:42;;;;;;;4.65;1.75;;;34.50;29.50;;;;;;5066030;28;20062;-73
2021/06/14 09:42:23;;;;;;;5.63;1.80;;;34.90;29.70;;;;;;5066383;28;20029;-72
2021/06/14 09:44:51;;;;;;;4.03;1.40;;;34.90;28.20;;;;;;5067722;28;20036;-71
2021/06/14 09:47:18;;;;;;;3.63;1.27;;;34.60;29.40;;;;;;5070059;28;20031;-71
2021/06/14 09:50:02;;;;;;;4.68;1.20;;;35.10;29.10;;;;;;5068594;28;20021;-72
2021/06/14 09:52:28;;;;;;;3.60;1.15;;;35.50;28.30;;;;;;5070791;28;20039;-75
2021/06/14 09:55:09;;;;;;;3.28;1.00;;;35.80;28.20;;;;;;5070210;28;20048;-72
2021/06/14 09:57:34;;;;;;;3.03;1.17;;;36.30;27.90;;;;;;5069475;28;20025;-71
2021/06/14 10:00:15;;;;;;;4.05;2.00;;;36.70;27.90;;;;;;5069030;28;20361;-72
2021/06/14 10:02:40;;;;;;;3.88;1.60;;;37.00;27.80;;;;;;5048341;28;20029;-72
2021/06/14 10:05:16;;;;;;;2.80;1.30;;;37.10;27.50;;;;;;5050175;28;20488;-72
2021/06/14 10:07:50;;;;;;;5.05;1.42;;;36.90;28.10;;;;;;5064687;28;20090;-72
2021/06/14 10:10:25;;;;;;;4.35;1.42;;;37.00;28.40;;;;;;5058988;28;20413;-72
2021/06/14 10:13:00;;;;;;;3.30;1.42;;;37.00;28.50;;;;;;5053933;28;20048;-72
2021/06/14 10:15:29;;;;;;;5.97;2.00;;;36.90;28.70;;;;;;5070274;28;20033;-71
2021/06/14 10:17:55;;;;;;;4.10;1.77;;;37.10;28.80;;;;;;5064703;28;20036;-71
2021/06/14 10:20:26;;;;;;;5.00;2.00;;;36.80;28.80;;;;;;5074565;28;20082;-71
2021/06/14 10:22:54;;;;;;;3.75;2.03;;;36.70;29.10;;;;;;5072085;28;20309;-71
2021/06/14 10:25:22;;;;;;;4.40;1.90;;;36.70;29.20;;;;;;5055742;28;20463;-71
2021/06/14 10:27:48;;;;;;;6.13;2.40;;;36.80;29.30;;;;;;5053576;28;20029;-71
2021/06/14 10:30:18;;;;;;;5.20;2.25;;;36.70;29.40;;;;;;5052400;28;20033;-72
2021/06/14 10:32:45;;;;;;;4.07;2.35;;;36.70;29.50;;;;;;5053499;28;20478;-72
2021/06/14 10:35:13;;;;;;;7.82;2.88;;;36.80;29.50;;;;;;5070840;28;20036;-72
2021/06/14 10:37:47;;;;;;;5.18;2.00;;;36.70;29.50;;;;;;5071074;28;20037;-72
2021/06/14 10:40:16;;;;;;;8.43;2.92;;;36.50;29.50;;;;;;5072352;28;20059;-72
2021/06/14 10:42:45;;;;;;;7.30;2.70;;;35.90;29.00;;;;;;5073328;28;20490;-72
2021/06/14 10:45:13;;;;;;;9.27;2.55;;;35.10;29.70;;;;;;5058898;28;20048;-72
2021/06/14 10:47:41;;;;;;;5.35;2.70;;;34.80;30.40;;;;;;5064089;28;20059;-72
2021/06/14 10:50:13;;;;;;;7.20;3.00;;;34.50;31.30;;;;;;5081599;28;20495;-71
2021/06/14 10:52:39;;;;;;;;;;;34.90;31.10;;;;;;5077557;28;20482;-72
2021/06/14 10:55:14;;;;;;;5.18;2.10;;;34.70;30.40;;;;;;5052433;28;19979;-71
2021/06/14 10:57:41;;;;;;;5.22;2.33;;;34.40;31.10;;;;;;5053809;28;20032;-73
2021/06/14 11:00:19;;;;;;;4.95;2.20;;;34.20;30.90;;;;;;5071650;28;20033;-71
2021/06/14 11:02:56;;;;;;;7.43;1.60;;;34.30;31.40;;;;;;5099600;28;20020;-71
2021/06/14 11:05:31;;;;;;;4.40;1.70;;;34.60;31.60;;;;;;5071697;28;20028;-71
2021/06/14 11:07:56;;;;;;;6.88;2.50;;;34.90;30.60;;;;;;5072875;28;20281;-71
2021/06/14 11:10:28;;;;;;;4.82;2.20;;;35.00;31.10;;;;;;5054112;28;20029;-71
2021/06/14 11:13:10;;;;;;;;;;;35.00;30.70;;;;;;5075056;28;20027;-72
2021/06/14 11:15:36;;;;;;;4.82;2.20;;;35.30;30.80;;;;;;5078621;28;19908;-72
2021/06/14 11:18:06;;;;;;;5.47;2.28;;;35.60;30.40;;;;;;5073681;28;20035;-72
2021/06/14 11:20:37;;;;;;;6.82;2.65;;;35.40;30.00;;;;;;5062290;28;20035;-72
2021/06/14 11:23:17;;;;;;;7.85;2.50;;;35.50;29.80;;;;;;5077576;28;20063;-72
2021/06/14 11:25:43;;;;;;;5.32;1.83;;;35.00;30.60;;;;;;5078564;28;20103;-73
2021/06/14 11:28:10;;;;;;;6.63;2.30;;;35.10;30.60;;;;;;5070031;28;20108;-73
2021/06/14 11:30:47;;;;;;;7.45;2.47;;;35.40;30.00;;;;;;5052436;28;20037;-72
2021/06/14 11:33:29;;;;;;;3.45;1.88;;;35.00;29.40;;;;;;5054930;28;20025;-72
2021/06/14 11:35:58;;;;;;;4.55;1.90;;;34.60;31.10;;;;;;5067752;28;20029;-72
2021/06/14 11:38:25;;;;;;;3.20;1.48;;;34.90;30.30;;;;;;5050122;28;20029;-72
2021/06/14 11:40:57;;;;;;;3.45;1.60;;;35.00;30.40;;;;;;5067392;28;20036;-72
2021/06/14 11:43:24;;;;;;;5.60;1.70;;;35.10;30.00;;;;;;5079177;28;20107;-75
2021/06/14 11:45:52;;;;;;;2.58;1.70;;;35.20;30.00;;;;;;5077567;28;20036;-71
2021/06/14 11:48:30;;;;;;;5.10;1.52;;;35.30;29.80;;;;;;5069316;28;20061;-72
2021/06/14 11:51:06;;;;;;;5.57;1.38;;;35.50;29.70;;;;;;5064160;28;20024;-71
2021/06/14 11:53:53;;;;;;;3.67;1.45;;;35.40;29.70;;;;;;5068576;28;20059;-72
2021/06/14 11:56:23;;;;;;;3.35;1.40;;;35.50;29.40;;;;;;5077783;28;20063;-72
2021/06/14 11:58:51;;;;;;;4.15;1.20;;;35.10;29.20;;;;;;5063375;28;20040;-73
2021/06/14 12:01:33;;;;;;;3.42;1.17;;;35.00;30.10;;;;;;5069861;28;20429;-71
2021/06/14 12:04:07;;;;;;;4.80;1.40;;;35.30;30.10;;;;;;5066229;28;20021;-77
2021/06/14 12:06:47;;;;;;;3.85;1.20;;;35.70;29.60;;;;;;5061879;28;20036;-72
2021/06/14 12:09:25;;;;;;;2.30;1.10;;;36.00;29.00;;;;;;5059186;28;20032;-71
2021/06/14 12:12:03;;;;;;;3.55;1.15;;;35.90;29.10;;;;;;5059136;28;20029;-73
2021/06/14 12:14:30;;;;;;;4.55;1.33;;;35.70;28.80;;;;;;5063195;28;20488;-72
2021/06/14 12:17:06;;;;;;;2.92;1.10;;;35.80;28.90;;;;;;5069855;28;20101;-73
2021/06/14 12:19:34;;;;;;;1.90;1.05;;;35.90;28.70;;;;;;5057562;28;20024;-71
2021/06/14 12:22:06;;;;;;;3.45;1.38;;;36.10;29.20;;;;;;5070689;28;20074;-72
2021/06/14 12:24:33;;;;;;;;;;;36.30;29.00;;;;;;5066441;28;20032;-72
2021/06/14 12:27:04;;;;;;;4.07;1.00;;;35.80;28.70;;;;;;5049990;28;19912;-73
2021/06/14 12:29:30;;;;;;;3.45;1.00;;;35.80;29.00;;;;;;5084622;28;20481;-72
2021/06/14 12:32:03;;;;;;;4.57;1.20;;;35.80;29.10;;;;;;5065545;28;20029;-72
2021/06/14 12:34:30;;;;;;;2.95;1.10;;;35.90;29.00;;;;;;5051592;28;20437;-72
2021/06/14 12:37:08;;;;;;;3.17;1.13;;;36.10;28.90;;;;;;5058477;28;20049;-72
2021/06/14 12:39:35;;;;;;;4.30;1.40;;;36.10;28.70;;;;;;5068841;28;20067;-71
2021/06/14 12:42:01;;;;;;;3.42;1.02;;;36.00;28.70;;;;;;5071241;28;20488;-72
2021/06/14 12:44:27;;;;;;;7.75;1.27;;;36.00;28.90;;;;;;5076051;28;20012;-72
2021/06/14 12:46:54;;;;;;;2.83;1.17;;;35.90;28.90;;;;;;5074932;28;20086;-78
2021/06/14 12:49:24;;;;;;;2.38;1.13;;;36.10;29.60;;;;;;5072626;28;20028;-72
2021/06/14 12:51:50;;;;;;;2.85;1.50;;;36.10;29.20;;;;;;5051431;28;20099;-72
2021/06/14 12:54:15;;;;;;;2.88;1.10;;;36.10;29.30;;;;;;5049784;28;20044;-73